Time;durP1;ratioP1;P1;durP2;ratioP2;P2;SDS_P1;SDS_P2;PMS_P1;PMS_P2;Temp;Humidity;BMP_temperature;BMP_pressure;BME280_temperature;BME280_humidity;BME280_pressure;Samples;Min_cycle;Max_cycle;Signal;HPM_P1;HPM_P2
2022/08/17 00:02:07;;;;;;;5.95;3.90;;;17.10;99.90;;;;;;5051897;28;20047;-57
2022/08/17 00:04:53;;;;;;;10.65;4.40;;;17.10;99.90;;;;;;5050902;28;20086;-55
2022/08/17 00:07:20;;;;;;;5.75;3.83;;;17.10;99.90;;;;;;5053028;28;20571;-54
2022/08/17 00:09:47;;;;;;;8.98;4.68;;;17.10;99.90;;;;;;5052146;28;20111;-55
2022/08/17 00:12:14;;;;;;;10.57;4.68;;;17.10;99.90;;;;;;5052160;28;20052;-55
2022/08/17 00:15:01;;;;;;;6.25;4.28;;;17.10;99.90;;;;;;5051109;28;20453;-55
2022/08/17 00:17:27;;;;;;;;;;;17.00;99.90;;;;;;5053019;28;20076;-55
2022/08/17 00:19:54;;;;;;;8.25;4.97;;;17.00;99.90;;;;;;5052365;28;19998;-56
2022/08/17 00:22:21;;;;;;;;;;;17.00;99.90;;;;;;5045287;28;20060;-52
2022/08/17 00:25:07;;;;;;;7.68;4.57;;;16.90;99.90;;;;;;5032176;28;20593;-55
2022/08/17 00:27:35;;;;;;;5.25;4.30;;;16.90;99.90;;;;;;5035349;28;20072;-56
2022/08/17 00:30:05;;;;;;;6.13;4.03;;;16.90;99.90;;;;;;5032530;28;20446;-56
2022/08/17 00:32:44;;;;;;;4.85;4.35;;;16.90;99.90;;;;;;5030894;28;20048;-55
2022/08/17 00:35:31;;;;;;;5.45;3.92;;;16.90;99.90;;;;;;5054794;28;20067;-55
2022/08/17 00:37:58;;;;;;;;;;;16.90;99.90;;;;;;5056483;28;20569;-56
2022/08/17 00:40:25;;;;;;;5.55;4.15;;;16.90;99.90;;;;;;5056409;28;19925;-56
2022/08/17 00:43:12;;;;;;;5.03;4.53;;;16.90;99.90;;;;;;5055257;28;20045;-57
2022/08/17 00:45:39;;;;;;;4.55;4.07;;;17.00;99.90;;;;;;5055818;28;20762;-55
2022/08/17 00:48:06;;;;;;;7.95;4.53;;;16.90;99.90;;;;;;5054760;28;20094;-56
2022/08/17 00:50:57;;;;;;;10.13;4.53;;;16.90;99.90;;;;;;5056062;28;20135;-56
2022/08/17 00:53:27;;;;;;;5.97;4.00;;;16.90;99.90;;;;;;5054880;28;20036;-57
2022/08/17 00:55:54;;;;;;;5.80;4.13;;;17.00;99.90;;;;;;5055314;28;20048;-55
2022/08/17 00:58:22;;;;;;;4.60;4.20;;;17.00;99.90;;;;;;5055326;28;20530;-56
2022/08/17 01:01:03;;;;;;;5.05;4.20;;;17.10;99.90;;;;;;5055317;28;20568;-55
2022/08/17 01:03:30;;;;;;;6.18;3.83;;;17.00;99.90;;;;;;5055017;28;20045;-55
2022/08/17 01:06:00;;;;;;;4.90;3.78;;;17.10;99.90;;;;;;5055380;28;20040;-55
2022/08/17 01:08:29;;;;;;;6.13;3.90;;;17.10;99.90;;;;;;5055505;28;20125;-56
2022/08/17 01:11:02;;;;;;;4.20;3.83;;;17.10;99.90;;;;;;5054189;28;20056;-56
2022/08/17 01:13:35;;;;;;;4.95;4.32;;;17.10;99.90;;;;;;5054633;28;20681;-55
2022/08/17 01:16:10;;;;;;;4.60;3.80;;;17.10;99.90;;;;;;5054332;28;20044;-56
2022/08/17 01:18:36;;;;;;;4.13;3.70;;;17.10;99.90;;;;;;5055083;28;20056;-55
2022/08/17 01:21:13;;;;;;;8.52;4.45;;;17.10;99.90;;;;;;5054970;28;20047;-55
2022/08/17 01:23:41;;;;;;;4.60;4.20;;;17.10;99.90;;;;;;5055101;28;20800;-56
2022/08/17 01:26:08;;;;;;;4.22;3.83;;;17.10;99.90;;;;;;5055165;28;20052;-55
2022/08/17 01:28:37;;;;;;;13.55;3.60;;;17.10;99.90;;;;;;5038105;28;20041;-55
2022/08/17 01:31:22;;;;;;;5.63;4.38;;;17.10;99.90;;;;;;5035283;28;20055;-56
2022/08/17 01:33:49;;;;;;;11.27;4.85;;;17.10;99.90;;;;;;5045053;28;20511;-56
2022/08/17 01:36:16;;;;;;;6.75;4.40;;;17.10;99.90;;;;;;5055193;28;20037;-57
2022/08/17 01:38:43;;;;;;;6.72;4.53;;;17.00;99.90;;;;;;5055003;28;20055;-55
2022/08/17 01:41:14;;;;;;;6.78;4.00;;;17.00;99.90;;;;;;5055309;28;20045;-55
2022/08/17 01:43:46;;;;;;;6.78;4.13;;;17.00;99.90;;;;;;5054133;28;20096;-56
2022/08/17 01:46:18;;;;;;;4.15;3.85;;;16.90;99.90;;;;;;5054186;28;20052;-57
2022/08/17 01:48:46;;;;;;;5.95;4.13;;;17.00;99.90;;;;;;5054796;28;20098;-55
2022/08/17 01:51:14;;;;;;;4.95;4.45;;;16.90;99.90;;;;;;5053333;28;20044;-55
2022/08/17 01:53:46;;;;;;;7.45;4.57;;;16.90;99.90;;;;;;5054371;28;20051;-55
2022/08/17 01:56:18;;;;;;;4.63;4.03;;;16.90;99.90;;;;;;5054163;28;20040;-55
2022/08/17 01:58:45;;;;;;;8.98;6.22;;;16.80;99.90;;;;;;5054072;28;20076;-56
2022/08/17 02:01:17;;;;;;;7.43;6.13;;;16.80;99.90;;;;;;5053962;28;20756;-54
2022/08/17 02:03:45;;;;;;;7.97;5.15;;;16.90;99.90;;;;;;5052307;28;20836;-57
2022/08/17 02:06:33;;;;;;;9.63;6.97;;;16.90;99.90;;;;;;5053863;28;20084;-55
2022/08/17 02:09:25;;;;;;;8.43;6.13;;;17.00;99.90;;;;;;5053940;28;20053;-56
2022/08/17 02:11:57;;;;;;;8.75;5.68;;;17.00;99.90;;;;;;5038983;28;20135;-55
2022/08/17 02:14:24;;;;;;;9.52;6.68;;;17.00;99.90;;;;;;5053565;28;20044;-55
2022/08/17 02:16:52;;;;;;;5.75;5.22;;;17.00;99.90;;;;;;5054097;28;20542;-55
2022/08/17 02:19:19;;;;;;;7.57;5.88;;;16.90;99.90;;;;;;5054238;28;20060;-55
2022/08/17 02:21:48;;;;;;;11.15;6.25;;;16.90;99.90;;;;;;5054109;28;20059;-54
2022/08/17 02:24:20;;;;;;;6.65;5.55;;;16.90;99.90;;;;;;5052472;28;20056;-55
2022/08/17 02:27:07;;;;;;;11.90;7.95;;;16.80;99.90;;;;;;5054300;28;20094;-55
2022/08/17 02:29:33;;;;;;;;;;;16.80;99.90;;;;;;5038040;28;20124;-56
2022/08/17 02:32:00;;;;;;;7.05;5.70;;;16.70;99.90;;;;;;5053793;28;19928;-56
2022/08/17 02:34:27;;;;;;;9.23;6.13;;;16.70;99.90;;;;;;5052565;28;20041;-56
2022/08/17 02:36:54;;;;;;;9.40;6.35;;;16.60;99.90;;;;;;5054327;28;20529;-56
2022/08/17 02:39:21;;;;;;;10.75;7.03;;;16.60;99.90;;;;;;5053443;28;20098;-56
2022/08/17 02:41:48;;;;;;;10.23;6.43;;;16.50;99.90;;;;;;5053832;28;20048;-57
2022/08/17 02:44:15;;;;;;;8.20;6.55;;;16.40;99.90;;;;;;5053232;28;20576;-54
2022/08/17 02:47:02;;;;;;;6.65;5.85;;;16.40;99.90;;;;;;5053944;28;20056;-55
2022/08/17 02:49:29;;;;;;;7.03;6.18;;;16.30;99.90;;;;;;5053868;28;20132;-55
2022/08/17 02:51:57;;;;;;;15.10;6.43;;;16.20;99.90;;;;;;5053154;28;20047;-54
2022/08/17 02:54:24;;;;;;;7.75;5.90;;;16.20;99.90;;;;;;5053226;28;20052;-56
2022/08/17 02:57:08;;;;;;;7.75;6.15;;;16.10;99.90;;;;;;5052398;28;20081;-57
2022/08/17 02:59:37;;;;;;;7.07;5.43;;;16.10;99.90;;;;;;5052960;28;20128;-54
2022/08/17 03:02:06;;;;;;;10.23;6.68;;;16.10;99.90;;;;;;5050874;28;20048;-56
2022/08/17 03:04:33;;;;;;;6.47;5.53;;;16.00;99.90;;;;;;5032671;28;20392;-55
2022/08/17 03:07:01;;;;;;;6.28;5.68;;;16.00;99.90;;;;;;5033177;28;20044;-55
2022/08/17 03:09:28;;;;;;;6.07;4.88;;;16.10;99.90;;;;;;5049914;28;20064;-58
2022/08/17 03:12:05;;;;;;;10.32;5.20;;;16.10;99.90;;;;;;5035161;28;20048;-56
2022/08/17 03:14:32;;;;;;;6.20;5.60;;;16.10;99.90;;;;;;5052456;28;20037;-56
2022/08/17 03:17:01;;;;;;;8.40;5.25;;;16.10;99.90;;;;;;5052704;28;20048;-54
2022/08/17 03:19:29;;;;;;;8.43;5.80;;;16.00;99.90;;;;;;5052572;28;20568;-55
2022/08/17 03:22:03;;;;;;;7.00;6.00;;;16.00;99.90;;;;;;5053540;28;20105;-58
2022/08/17 03:24:50;;;;;;;11.68;6.05;;;16.00;99.90;;;;;;5052684;28;20102;-54
2022/08/17 03:27:17;;;;;;;7.32;6.63;;;16.00;99.90;;;;;;5053802;28;20044;-55
2022/08/17 03:29:44;;;;;;;10.38;6.50;;;16.00;99.90;;;;;;5041610;28;20601;-55
2022/08/17 03:32:13;;;;;;;9.13;6.25;;;16.00;99.90;;;;;;5052677;28;20501;-55
2022/08/17 03:34:41;;;;;;;8.75;5.72;;;16.00;99.90;;;;;;5052897;28;20040;-55
2022/08/17 03:37:08;;;;;;;8.73;6.80;;;16.00;99.90;;;;;;5052608;28;20428;-56
2022/08/17 03:39:34;;;;;;;9.13;5.85;;;16.00;99.90;;;;;;5053918;28;20682;-57
2022/08/17 03:42:13;;;;;;;7.70;5.68;;;16.00;99.90;;;;;;5053668;28;20120;-56
2022/08/17 03:44:59;;;;;;;6.65;5.32;;;16.10;99.90;;;;;;5053903;28;20098;-57
2022/08/17 03:58:47;;;;;;;10.13;5.70;;;16.30;99.90;;;;;;5053774;28;20072;-55
2022/08/17 04:01:15;;;;;;;8.45;5.35;;;16.30;99.90;;;;;;5053989;28;20098;-55
2022/08/17 04:03:42;;;;;;;9.25;6.03;;;16.30;99.90;;;;;;5053480;28;20669;-55
2022/08/17 04:06:08;;;;;;;7.57;5.47;;;16.40;99.90;;;;;;5054379;28;20056;-56
2022/08/17 04:08:35;;;;;;;8.27;5.72;;;16.50;99.90;;;;;;5035754;28;20755;-54
2022/08/17 04:11:02;;;;;;;;;;;16.50;99.90;;;;;;5058295;28;20035;-56
2022/08/17 04:13:29;;;;;;;9.40;6.03;;;16.50;99.90;;;;;;5057238;28;19931;-54
2022/08/17 04:15:58;;;;;;;10.32;6.25;;;16.50;99.90;;;;;;5055677;28;20049;-56
2022/08/17 04:18:25;;;;;;;9.88;5.63;;;16.50;99.90;;;;;;5056729;28;20040;-56
2022/08/17 04:20:51;;;;;;;7.38;5.88;;;16.50;99.90;;;;;;5057346;28;20044;-55
2022/08/17 04:23:18;;;;;;;;;;;16.60;99.90;;;;;;5058465;28;20052;-57
2022/08/17 04:25:48;;;;;;;10.98;6.30;;;16.50;99.90;;;;;;5057001;28;19928;-55
2022/08/17 04:28:17;;;;;;;7.60;6.07;;;16.50;99.90;;;;;;5057296;28;20055;-55
2022/08/17 04:30:46;;;;;;;9.43;6.97;;;16.40;99.90;;;;;;5048295;28;20044;-53
2022/08/17 04:33:22;;;;;;;5.38;4.88;;;16.40;99.90;;;;;;5044595;28;20033;-55
2022/08/17 04:35:52;;;;;;;11.95;5.60;;;16.40;99.90;;;;;;5056987;28;20980;-55
2022/08/17 04:38:23;;;;;;;8.20;5.57;;;16.40;99.90;;;;;;5057566;28;20033;-56
2022/08/17 04:43:38;;;;;;;11.43;6.13;;;16.50;99.90;;;;;;5056855;28;20124;-56
2022/08/17 04:46:08;;;;;;;9.30;5.45;;;16.50;99.90;;;;;;5057194;28;20755;-56
2022/08/17 04:48:38;;;;;;;5.00;4.50;;;16.60;99.90;;;;;;5056664;28;20044;-53
2022/08/17 04:51:18;;;;;;;6.50;5.55;;;16.60;99.90;;;;;;5056590;28;20075;-54
2022/08/17 04:53:48;;;;;;;7.70;5.07;;;16.70;99.90;;;;;;5055106;28;21119;-52
2022/08/17 04:56:22;;;;;;;8.52;6.07;;;16.70;99.90;;;;;;5056653;28;20036;-53
2022/08/17 04:58:50;;;;;;;9.32;5.18;;;16.70;99.90;;;;;;5057281;28;20622;-53
2022/08/17 05:01:19;;;;;;;8.40;5.25;;;16.70;99.90;;;;;;5055668;28;20498;-53
2022/08/17 05:03:52;;;;;;;8.27;5.28;;;16.80;99.90;;;;;;5056224;28;20048;-53
2022/08/17 05:06:19;;;;;;;9.98;5.30;;;16.80;99.90;;;;;;5054848;28;20045;-52
2022/08/17 05:08:46;;;;;;;7.15;5.28;;;16.80;99.90;;;;;;5038938;28;20709;-53
2022/08/17 05:11:13;;;;;;;6.43;4.85;;;16.80;99.90;;;;;;5054398;28;20704;-51
2022/08/17 05:13:40;;;;;;;11.63;5.10;;;16.90;99.90;;;;;;5054988;28;20530;-52
2022/08/17 05:16:07;;;;;;;6.40;5.22;;;16.90;99.90;;;;;;5054207;28;20043;-53
2022/08/17 05:18:36;;;;;;;11.82;5.07;;;17.00;99.90;;;;;;5055164;28;20037;-51
2022/08/17 05:21:05;;;;;;;7.10;5.03;;;17.10;99.90;;;;;;5055015;28;20052;-53
2022/08/17 05:23:32;;;;;;;7.65;5.78;;;17.20;99.90;;;;;;5055779;28;20130;-53
2022/08/17 05:26:12;;;;;;;11.98;5.35;;;17.30;99.90;;;;;;5056366;28;20944;-52
2022/08/17 05:28:57;;;;;;;8.32;5.80;;;17.40;99.90;;;;;;5039930;28;20059;-53
2022/08/17 05:31:29;;;;;;;8.13;5.22;;;17.60;99.90;;;;;;5044548;28;20040;-52
2022/08/17 05:33:57;;;;;;;6.88;5.10;;;17.80;99.90;;;;;;5044791;28;20043;-53
2022/08/17 05:36:24;;;;;;;9.32;6.35;;;18.00;99.90;;;;;;5038263;28;20044;-53
2022/08/17 05:39:13;;;;;;;5.95;4.93;;;18.10;99.90;;;;;;5055803;28;20060;-54
2022/08/17 05:41:45;;;;;;;8.18;5.40;;;18.30;99.90;;;;;;5037673;28;20128;-54
2022/08/17 05:44:13;;;;;;;11.32;5.57;;;18.50;99.90;;;;;;5037787;28;20044;-54
2022/08/17 05:46:46;;;;;;;5.38;4.85;;;18.70;99.90;;;;;;5055641;28;20040;-53
2022/08/17 05:49:17;;;;;;;6.85;5.10;;;18.80;99.90;;;;;;5053761;28;20106;-54
2022/08/17 05:52:12;;;;;;;6.25;5.15;;;19.00;99.90;;;;;;5054611;28;20106;-54
2022/08/17 05:54:57;;;;;;;9.20;5.25;;;19.20;99.90;;;;;;5038231;28;20047;-54
2022/08/17 05:57:41;;;;;;;7.40;4.78;;;19.40;99.90;;;;;;5056115;28;20580;-53
2022/08/17 06:00:26;;;;;;;7.68;5.35;;;19.50;99.90;;;;;;5054533;28;20048;-53
2022/08/17 06:03:30;;;;;;;6.13;4.78;;;19.60;99.90;;;;;;5037750;28;20049;-54
2022/08/17 06:06:09;;;;;;;8.35;4.85;;;19.70;99.90;;;;;;5054757;28;20588;-54
2022/08/17 06:08:55;;;;;;;5.55;4.70;;;19.80;99.90;;;;;;5055549;28;20667;-52
2022/08/17 06:11:45;;;;;;;8.68;5.45;;;19.70;99.90;;;;;;5053587;28;20049;-54
2022/08/17 06:14:44;;;;;;;4.78;4.32;;;19.70;99.90;;;;;;5055038;28;20362;-53
2022/08/17 06:17:15;;;;;;;6.43;5.05;;;19.70;99.90;;;;;;5053185;28;20040;-53
2022/08/17 06:19:51;;;;;;;5.38;4.82;;;19.70;99.90;;;;;;5055397;28;20055;-53
2022/08/17 06:22:20;;;;;;;4.93;4.53;;;19.70;99.90;;;;;;5055485;28;20072;-52
2022/08/17 06:24:56;;;;;;;4.90;4.40;;;19.80;99.90;;;;;;5052838;28;20598;-54
2022/08/17 06:27:37;;;;;;;5.28;4.80;;;19.80;99.90;;;;;;5054433;28;20062;-53
2022/08/17 06:30:19;;;;;;;6.15;5.38;;;19.80;99.90;;;;;;5053187;28;20495;-53
2022/08/17 06:32:48;;;;;;;5.35;4.68;;;19.80;99.90;;;;;;5042002;28;20620;-53
2022/08/17 06:35:29;;;;;;;5.05;4.57;;;19.90;99.90;;;;;;5049267;28;20052;-49
2022/08/17 06:38:18;;;;;;;6.18;4.78;;;19.90;99.90;;;;;;5054125;28;20053;-51
2022/08/17 06:41:07;;;;;;;9.70;4.90;;;20.00;99.90;;;;;;5054590;28;20055;-53
2022/08/17 06:44:02;;;;;;;9.95;5.35;;;20.10;99.90;;;;;;5054924;28;20040;-52
2022/08/17 06:46:39;;;;;;;7.57;4.82;;;20.10;99.90;;;;;;5053996;28;20048;-52
2022/08/17 06:49:18;;;;;;;5.65;4.75;;;20.20;99.90;;;;;;5055220;28;20036;-53
2022/08/17 06:51:50;;;;;;;7.13;5.00;;;20.20;99.90;;;;;;5052721;28;20725;-52
2022/08/17 06:54:52;;;;;;;6.82;4.90;;;20.30;99.90;;;;;;5054608;28;20704;-52
2022/08/17 06:57:21;;;;;;;7.78;5.30;;;20.40;99.90;;;;;;5037509;28;20064;-52
2022/08/17 06:59:56;;;;;;;5.85;5.25;;;20.50;99.90;;;;;;5055124;28;20052;-52
2022/08/17 07:03:00;;;;;;;6.40;5.13;;;20.60;99.90;;;;;;5052466;28;20036;-53
2022/08/17 07:05:36;;;;;;;6.10;5.00;;;20.70;99.90;;;;;;5051399;28;20167;-51
2022/08/17 07:08:17;;;;;;;6.80;5.03;;;20.70;99.90;;;;;;5054033;28;20156;-52
2022/08/17 07:10:51;;;;;;;5.63;4.55;;;20.80;99.90;;;;;;5054164;28;20086;-52
2022/08/17 07:13:21;;;;;;;6.75;4.93;;;20.80;99.90;;;;;;5052269;28;20729;-53
2022/08/17 07:15:52;;;;;;;8.32;5.25;;;21.00;99.90;;;;;;5054480;28;20073;-52
2022/08/17 07:18:25;;;;;;;6.72;4.88;;;21.10;99.90;;;;;;5054784;28;20041;-53
2022/08/17 07:20:59;;;;;;;7.60;5.15;;;21.30;99.90;;;;;;5054045;28;20076;-53
2022/08/17 07:23:43;;;;;;;6.28;5.25;;;21.50;99.90;;;;;;5053960;28;20047;-53
2022/08/17 07:26:12;;;;;;;6.45;5.13;;;21.80;99.90;;;;;;5054023;28;20052;-53
2022/08/17 07:28:40;;;;;;;5.25;4.75;;;22.00;99.90;;;;;;5053997;28;20099;-49
2022/08/17 07:31:08;;;;;;;6.30;4.97;;;22.10;99.90;;;;;;5052518;28;20040;-50
2022/08/17 07:33:35;;;;;;;5.97;4.78;;;22.20;99.90;;;;;;5046971;28;20071;-48
2022/08/17 07:36:03;;;;;;;5.30;4.63;;;22.20;99.90;;;;;;5048818;28;20442;-48
2022/08/17 07:38:34;;;;;;;7.72;5.25;;;22.30;99.90;;;;;;5053660;28;20477;-49
2022/08/17 07:41:06;;;;;;;6.38;4.35;;;22.30;99.90;;;;;;5053736;28;20157;-50
2022/08/17 07:43:45;;;;;;;9.45;4.68;;;22.40;99.90;;;;;;5052825;28;20168;-50
2022/08/17 07:49:34;;;;;;;6.95;4.72;;;22.70;99.90;;;;;;5054821;28;20418;-48
2022/08/17 07:52:05;;;;;;;8.95;5.53;;;22.80;99.90;;;;;;5052205;28;20534;-49
2022/08/17 07:54:53;;;;;;;8.93;4.57;;;22.90;99.90;;;;;;5053567;28;20120;-52
2022/08/17 07:57:21;;;;;;;5.57;4.68;;;23.20;99.90;;;;;;5053348;28;20075;-54
2022/08/17 08:00:01;;;;;;;4.57;4.15;;;23.80;99.90;;;;;;5054130;28;20056;-50
2022/08/17 08:02:40;;;;;;;5.80;4.70;;;24.60;99.90;;;;;;5054930;28;20518;-48
2022/08/17 08:05:24;;;;;;;9.25;4.85;;;25.30;98.10;;;;;;5052573;28;20044;-50
2022/08/17 08:08:25;;;;;;;5.78;4.65;;;25.90;93.90;;;;;;5054462;28;20048;-49
2022/08/17 08:11:00;;;;;;;6.63;5.00;;;26.50;90.30;;;;;;5053046;28;20190;-51
2022/08/17 08:13:29;;;;;;;8.05;4.30;;;26.90;82.90;;;;;;5035494;28;20068;-48
2022/08/17 08:16:13;;;;;;;7.72;4.05;;;27.20;70.10;;;;;;5052857;28;20560;-49
2022/08/17 08:18:44;;;;;;;6.32;4.50;;;27.50;67.10;;;;;;5053850;28;20094;-54
2022/08/17 08:21:30;;;;;;;11.57;5.53;;;27.60;68.20;;;;;;5053488;28;20143;-49
2022/08/17 08:24:09;;;;;;;6.60;4.25;;;27.30;69.00;;;;;;5051598;28;20044;-53
2022/08/17 08:26:56;;;;;;;5.57;4.35;;;26.90;69.10;;;;;;5051356;28;20076;-53
2022/08/17 08:30:03;;;;;;;8.52;4.82;;;26.50;66.70;;;;;;5052587;28;20052;-60
2022/08/17 08:32:45;;;;;;;11.43;4.38;;;26.50;68.90;;;;;;5053287;28;20064;-58
2022/08/17 08:35:32;;;;;;;4.97;4.25;;;26.50;65.70;;;;;;5034804;28;20450;-55
2022/08/17 08:38:10;;;;;;;7.85;3.90;;;26.60;67.50;;;;;;5033112;28;20592;-53
2022/08/17 08:40:55;;;;;;;6.55;4.40;;;26.70;66.30;;;;;;5032260;28;20045;-54
2022/08/17 08:43:59;;;;;;;4.85;3.83;;;26.80;67.60;;;;;;5015142;28;20048;-54
2022/08/17 08:46:52;;;;;;;5.95;4.20;;;26.90;64.80;;;;;;5033106;28;20045;-64
2022/08/17 08:49:35;;;;;;;6.60;4.05;;;27.10;69.80;;;;;;5015255;28;20107;-66
2022/08/17 08:52:56;;;;;;;7.70;3.90;;;27.30;66.00;;;;;;5032787;28;20128;-67
2022/08/17 08:55:43;;;;;;;11.13;5.93;;;27.60;64.60;;;;;;5033088;28;20548;-66
2022/08/17 08:58:21;;;;;;;8.32;4.28;;;27.70;63.30;;;;;;5028811;28;20076;-62
2022/08/17 09:01:18;;;;;;;14.40;6.05;;;28.00;63.50;;;;;;5060616;28;20048;-65
2022/08/17 09:04:02;;;;;;;9.27;4.72;;;28.20;62.90;;;;;;5043220;28;20040;-67
2022/08/17 09:06:56;;;;;;;5.55;3.70;;;28.50;61.60;;;;;;5057369;28;20532;-63
2022/08/17 09:09:25;;;;;;;9.57;4.28;;;28.70;57.90;;;;;;5046699;28;20049;-61
2022/08/17 09:12:05;;;;;;;6.55;4.05;;;28.80;58.20;;;;;;5057965;28;20037;-61
2022/08/17 09:14:50;;;;;;;5.40;4.53;;;28.90;57.80;;;;;;5058841;28;20059;-62
2022/08/17 09:17:24;;;;;;;6.90;3.60;;;29.10;54.40;;;;;;5057981;28;20040;-64
2022/08/17 09:20:24;;;;;;;4.53;4.03;;;29.10;54.40;;;;;;5056660;28;20056;-63
2022/08/17 09:23:09;;;;;;;8.90;4.75;;;29.10;56.90;;;;;;5057660;28;20040;-64
2022/08/17 09:25:48;;;;;;;7.38;4.32;;;29.00;57.00;;;;;;5056416;28;20078;-64
2022/08/17 09:28:22;;;;;;;12.50;6.47;;;29.00;57.20;;;;;;5056844;28;20274;-64
2022/08/17 09:30:53;;;;;;;9.75;4.88;;;29.10;57.50;;;;;;5055614;28;20051;-64
2022/08/17 09:33:26;;;;;;;4.72;3.80;;;29.20;57.00;;;;;;5048552;28;20684;-63
2022/08/17 09:36:00;;;;;;;6.22;4.10;;;29.30;55.10;;;;;;5056425;28;20040;-63
2022/08/17 09:38:54;;;;;;;7.30;4.28;;;29.40;55.00;;;;;;5056477;28;20043;-64
2022/08/17 09:41:35;;;;;;;4.32;3.72;;;29.50;56.60;;;;;;5039134;28;20033;-65
2022/08/17 09:44:18;;;;;;;6.60;4.28;;;29.60;55.10;;;;;;5054589;28;20059;-64
2022/08/17 09:46:52;;;;;;;;;;;29.70;54.90;;;;;;5057461;28;20765;-64
2022/08/17 09:49:30;;;;;;;15.73;4.60;;;29.90;52.50;;;;;;5054447;28;20636;-63
2022/08/17 09:52:04;;;;;;;4.75;4.25;;;30.00;51.70;;;;;;5053385;28;20142;-65
2022/08/17 09:54:34;;;;;;;6.75;3.65;;;30.00;53.40;;;;;;5038138;28;20124;-64
2022/08/17 09:57:21;;;;;;;8.70;3.70;;;29.90;53.20;;;;;;5054374;28;20045;-64
2022/08/17 10:00:14;;;;;;;8.35;3.85;;;29.90;51.70;;;;;;5056264;28;20048;-64
2022/08/17 10:03:18;;;;;;;3.83;3.45;;;30.00;51.90;;;;;;5055967;28;20235;-64
2022/08/17 10:06:01;;;;;;;9.35;3.25;;;30.10;51.40;;;;;;5019790;28;20138;-64
2022/08/17 10:08:53;;;;;;;4.03;3.50;;;29.90;50.50;;;;;;5055541;28;20048;-63
2022/08/17 10:14:34;;;;;;;5.40;4.50;;;29.60;53.30;;;;;;5042669;28;20174;-65
2022/08/17 10:17:25;;;;;;;8.43;3.80;;;29.50;54.50;;;;;;5053666;28;20041;-65
2022/08/17 10:19:55;;;;;;;7.32;3.75;;;29.60;54.10;;;;;;5053875;28;20048;-65
2022/08/17 10:28:29;;;;;;;4.65;4.00;;;30.10;51.50;;;;;;5055075;28;20039;-64
2022/08/17 10:31:01;;;;;;;4.38;3.97;;;30.10;52.70;;;;;;5055421;28;20511;-64
2022/08/17 10:33:59;;;;;;;4.95;3.47;;;30.30;52.50;;;;;;5054443;28;20044;-64
2022/08/17 10:36:34;;;;;;;5.90;3.88;;;30.30;50.50;;;;;;5054944;28;20046;-64
2022/08/17 10:39:21;;;;;;;8.52;3.92;;;30.30;51.50;;;;;;5055539;28;20095;-64
2022/08/17 10:41:53;;;;;;;4.85;3.38;;;30.30;51.90;;;;;;5053687;28;20063;-65
2022/08/17 10:44:41;;;;;;;6.00;3.53;;;30.40;51.20;;;;;;5055471;28;20048;-64
2022/08/17 10:47:14;;;;;;;4.95;3.45;;;30.50;50.50;;;;;;5055102;28;20044;-64
2022/08/17 10:49:48;;;;;;;5.60;4.07;;;30.60;49.80;;;;;;5055530;28;20603;-64
2022/08/17 10:52:18;;;;;;;5.60;3.70;;;30.70;49.90;;;;;;5054699;28;20122;-65
2022/08/17 10:55:05;;;;;;;3.67;3.38;;;30.80;50.60;;;;;;5055225;28;20185;-65
2022/08/17 10:57:38;;;;;;;6.18;3.97;;;31.00;52.30;;;;;;5053088;28;20106;-65
2022/08/17 11:00:14;;;;;;;7.20;3.60;;;31.20;50.10;;;;;;5054602;28;20040;-63
2022/08/17 11:02:51;;;;;;;6.77;3.43;;;31.30;49.10;;;;;;5054823;28;20597;-64
2022/08/17 11:05:26;;;;;;;13.55;3.40;;;31.20;49.10;;;;;;5053499;28;20458;-64
2022/08/17 11:08:17;;;;;;;4.50;3.00;;;31.20;49.30;;;;;;5052712;28;20040;-64
2022/08/17 11:11:14;;;;;;;6.80;3.50;;;31.20;49.60;;;;;;5048483;28;20037;-64
2022/08/17 11:14:07;;;;;;;4.05;3.65;;;31.30;49.00;;;;;;5048047;28;20064;-64
2022/08/17 11:17:14;;;;;;;5.95;4.00;;;31.50;49.60;;;;;;5054894;28;20071;-65
2022/08/17 11:20:18;;;;;;;5.78;3.42;;;31.60;45.50;;;;;;5043874;28;20051;-65
2022/08/17 11:23:11;;;;;;;4.85;3.08;;;31.50;46.20;;;;;;5054046;28;20074;-65
2022/08/17 11:25:51;;;;;;;6.20;3.50;;;31.40;49.70;;;;;;5053363;28;20044;-64
2022/08/17 11:28:33;;;;;;;4.80;3.45;;;31.40;49.20;;;;;;5054677;28;20742;-64
2022/08/17 11:31:23;;;;;;;4.60;3.42;;;31.40;47.00;;;;;;5052407;28;20157;-64
2022/08/17 11:34:31;;;;;;;3.65;3.33;;;31.40;48.60;;;;;;5038229;28;20098;-64
2022/08/17 11:37:50;;;;;;;4.68;3.42;;;31.50;46.00;;;;;;5034282;28;20785;-64
2022/08/17 11:40:35;;;;;;;6.88;3.70;;;31.70;48.30;;;;;;5016556;28;20041;-63
2022/08/17 11:43:26;;;;;;;4.13;3.72;;;31.70;49.30;;;;;;5033180;28;20510;-64
2022/08/17 11:52:41;;;;;;;4.28;3.83;;;31.30;49.60;;;;;;5029496;28;20045;-64
2022/08/17 11:55:27;;;;;;;5.18;3.65;;;31.30;49.70;;;;;;5054146;28;20064;-65
2022/08/17 11:58:28;;;;;;;5.97;3.47;;;31.20;49.90;;;;;;5053691;28;20055;-64
2022/08/17 12:01:00;;;;;;;6.35;4.00;;;31.10;49.30;;;;;;5052697;28;20036;-65
2022/08/17 12:03:30;;;;;;;5.75;3.80;;;31.00;50.50;;;;;;5036146;28;20037;-65
2022/08/17 12:06:26;;;;;;;6.13;4.30;;;30.90;50.50;;;;;;5052985;28;20049;-65
2022/08/17 12:09:08;;;;;;;7.30;3.55;;;30.80;51.10;;;;;;5053996;28;20581;-65
2022/08/17 12:11:37;;;;;;;6.43;3.85;;;30.70;50.10;;;;;;5047731;28;20056;-65
2022/08/17 12:14:28;;;;;;;5.90;3.83;;;30.60;49.20;;;;;;5042572;28;20675;-64
2022/08/17 12:17:22;;;;;;;7.68;4.30;;;30.60;50.30;;;;;;5053929;28;20033;-64
2022/08/17 12:20:18;;;;;;;6.90;4.25;;;30.60;52.00;;;;;;5054028;28;20759;-64
2022/08/17 12:23:18;;;;;;;4.25;3.53;;;30.80;48.30;;;;;;5052179;28;20124;-64
2022/08/17 12:25:48;;;;;;;6.40;3.47;;;30.70;49.30;;;;;;5052513;28;20037;-64
2022/08/17 12:28:33;;;;;;;5.85;3.50;;;30.70;47.90;;;;;;5053535;28;20048;-64
2022/08/17 12:31:06;;;;;;;5.88;3.88;;;30.80;51.10;;;;;;5055209;28;20819;-64
2022/08/17 12:33:35;;;;;;;5.53;3.90;;;30.90;51.00;;;;;;5055706;28;20570;-64
2022/08/17 12:36:07;;;;;;;3.67;3.38;;;30.90;49.80;;;;;;5057413;28;20049;-65
2022/08/17 12:38:36;;;;;;;5.97;4.10;;;30.90;49.00;;;;;;5056009;28;20605;-64
2022/08/17 12:44:18;;;;;;;5.35;3.60;;;31.10;49.50;;;;;;5057307;28;20044;-65
2022/08/17 12:47:00;;;;;;;3.83;3.40;;;31.20;48.60;;;;;;5057731;28;20534;-65
2022/08/17 12:49:34;;;;;;;4.40;3.63;;;31.20;48.00;;;;;;5057025;28;20040;-65
2022/08/17 12:52:07;;;;;;;4.85;3.60;;;31.20;48.00;;;;;;5055951;28;20048;-65
2022/08/17 12:54:52;;;;;;;11.48;4.25;;;31.30;49.50;;;;;;5056370;28;20048;-64
2022/08/17 12:57:32;;;;;;;4.60;3.80;;;31.30;49.40;;;;;;5057199;28;20043;-65
2022/08/17 13:00:20;;;;;;;8.45;3.92;;;31.30;49.10;;;;;;5038700;28;20690;-65
2022/08/17 13:02:51;;;;;;;6.13;4.03;;;31.30;47.90;;;;;;5055598;28;20048;-65
2022/08/17 13:05:21;;;;;;;5.13;3.65;;;31.30;47.60;;;;;;5055602;28;20462;-66
2022/08/17 13:07:49;;;;;;;4.32;3.92;;;31.20;48.40;;;;;;5055809;28;20132;-65
2022/08/17 13:10:21;;;;;;;7.30;4.00;;;31.30;48.40;;;;;;5056307;28;20033;-65
2022/08/17 13:12:49;;;;;;;3.35;3.05;;;31.20;46.90;;;;;;5051391;28;20076;-65
2022/08/17 13:15:20;;;;;;;5.60;3.35;;;31.20;47.10;;;;;;5038474;28;20048;-65
2022/08/17 13:18:06;;;;;;;4.22;3.63;;;31.10;47.50;;;;;;5036667;28;20048;-65
2022/08/17 13:20:34;;;;;;;3.83;3.53;;;31.10;48.00;;;;;;5037259;28;20049;-66
2022/08/17 13:23:19;;;;;;;5.47;3.40;;;30.90;48.70;;;;;;5018588;28;20099;-65
2022/08/17 13:25:53;;;;;;;10.70;3.60;;;30.80;49.20;;;;;;5035491;28;20072;-65
2022/08/17 13:28:26;;;;;;;4.78;4.03;;;30.80;49.20;;;;;;5036223;28;20045;-65
2022/08/17 13:31:20;;;;;;;5.00;3.65;;;30.80;49.00;;;;;;5036437;28;21211;-65
2022/08/17 13:33:47;;;;;;;5.45;3.97;;;30.80;49.90;;;;;;5046009;28;20041;-65
2022/08/17 13:36:28;;;;;;;4.32;3.92;;;30.80;49.50;;;;;;5054650;28;20059;-65
2022/08/17 13:39:18;;;;;;;7.32;3.97;;;30.80;49.40;;;;;;5056069;28;20033;-65
2022/08/17 13:41:46;;;;;;;4.00;3.70;;;30.70;50.00;;;;;;5055508;28;20059;-65
2022/08/17 13:44:30;;;;;;;5.25;3.67;;;30.80;50.50;;;;;;5055043;28;20813;-65
2022/08/17 13:46:59;;;;;;;4.78;3.85;;;30.90;48.60;;;;;;5054859;28;20138;-65
2022/08/17 13:49:28;;;;;;;4.80;3.88;;;30.90;48.00;;;;;;5056452;28;20627;-64
2022/08/17 13:52:35;;;;;;;6.60;4.55;;;31.00;49.60;;;;;;5056065;28;20124;-64
2022/08/17 13:55:16;;;;;;;4.90;4.40;;;31.00;50.00;;;;;;5056056;28;20122;-65
2022/08/17 13:57:46;;;;;;;6.00;3.90;;;31.10;50.60;;;;;;5055978;28;20063;-65
2022/08/17 14:00:28;;;;;;;8.18;4.50;;;31.20;49.70;;;;;;5056059;28;20071;-65
2022/08/17 14:03:00;;;;;;;7.63;4.10;;;31.20;49.90;;;;;;5055717;28;20457;-65
2022/08/17 14:05:28;;;;;;;7.55;4.47;;;31.10;49.50;;;;;;5055654;28;20051;-65
2022/08/17 14:07:59;;;;;;;5.05;4.25;;;31.10;51.00;;;;;;5055211;28;20060;-66
2022/08/17 14:10:26;;;;;;;6.97;4.10;;;30.90;49.90;;;;;;5055470;28;20052;-65
2022/08/17 14:12:53;;;;;;;5.72;3.83;;;30.90;50.70;;;;;;5053605;28;20045;-66
2022/08/17 14:15:23;;;;;;;5.60;4.05;;;30.70;50.60;;;;;;5037567;28;20637;-64